sensor_id;sensor_type;location;lat;lon;timestamp;pressure;altitude;pressure_sealevel;temperature;humidity
25130;BME280;13308;50.860;13.664;2022-09-09T05:28:27;96460.28;;;14.11;100.00
25130;BME280;13308;50.860;13.664;2022-09-09T05:31:00;96462.16;;;14.14;100.00
25130;BME280;13308;50.860;13.664;2022-09-09T05:33:29;96475.38;;;14.22;100.00
25130;BME280;13308;50.860;13.664;2022-09-09T05:35:58;96478.66;;;14.30;100.00
25130;BME280;13308;50.860;13.664;2022-09-09T05:38:24;96480.41;;;14.36;100.00
25130;BME280;13308;50.860;13.664;2022-09-09T05:40:51;96479.81;;;14.41;100.00
25130;BME280;13308;50.860;13.664;2022-09-09T05:43:18;96484.47;;;14.44;100.00
25130;BME280;13308;50.860;13.664;2022-09-09T05:45:46;96486.00;;;14.45;100.00
25130;BME280;13308;50.860;13.664;2022-09-09T05:48:16;96492.59;;;14.39;100.00
25130;BME280;13308;50.860;13.664;2022-09-09T05:50:42;96489.38;;;14.40;100.00
25130;BME280;13308;50.860;13.664;2022-09-09T05:53:08;96497.75;;;14.49;100.00
25130;BME280;13308;50.860;13.664;2022-09-09T05:55:35;96498.16;;;14.60;100.00
25130;BME280;13308;50.860;13.664;2022-09-09T05:58:00;96499.69;;;14.61;100.00
25130;BME280;13308;50.860;13.664;2022-09-09T06:00:26;96496.06;;;14.73;100.00
25130;BME280;13308;50.860;13.664;2022-09-09T06:02:52;96485.28;;;14.75;100.00
25130;BME280;13308;50.860;13.664;2022-09-09T06:05:19;96489.97;;;14.87;100.00
25130;BME280;13308;50.860;13.664;2022-09-09T06:07:45;96493.72;;;14.93;100.00
25130;BME280;13308;50.860;13.664;2022-09-09T06:10:11;96488.16;;;14.93;100.00
25130;BME280;13308;50.860;13.664;2022-09-09T06:12:39;96491.00;;;15.02;100.00
25130;BME280;13308;50.860;13.664;2022-09-09T06:15:06;96498.63;;;15.11;100.00
25130;BME280;13308;50.860;13.664;2022-09-09T06:17:32;96498.91;;;15.13;100.00
25130;BME280;13308;50.860;13.664;2022-09-09T06:19:57;96501.91;;;15.18;100.00
25130;BME280;13308;50.860;13.664;2022-09-09T06:22:23;96496.50;;;15.24;100.00
25130;BME280;13308;50.860;13.664;2022-09-09T06:24:48;96502.44;;;15.35;100.00
25130;BME280;13308;50.860;13.664;2022-09-09T06:27:14;96499.09;;;15.40;100.00
25130;BME280;13308;50.860;13.664;2022-09-09T06:29:39;96493.38;;;15.43;100.00
25130;BME280;13308;50.860;13.664;2022-09-09T06:32:05;96496.19;;;15.52;100.00
25130;BME280;13308;50.860;13.664;2022-09-09T06:34:30;96493.78;;;15.72;100.00
25130;BME280;13308;50.860;13.664;2022-09-09T06:36:57;96507.25;;;15.92;100.00
25130;BME280;13308;50.860;13.664;2022-09-09T06:39:23;96502.81;;;16.03;100.00
25130;BME280;13308;50.860;13.664;2022-09-09T06:41:49;96503.88;;;16.15;100.00
25130;BME280;13308;50.860;13.664;2022-09-09T06:44:37;96499.75;;;16.19;100.00
25130;BME280;13308;50.860;13.664;2022-09-09T06:47:05;96498.84;;;16.40;100.00
25130;BME280;13308;50.860;13.664;2022-09-09T06:49:32;96501.63;;;16.49;100.00
25130;BME280;13308;50.860;13.664;2022-09-09T06:51:58;96496.50;;;16.66;100.00
25130;BME280;13308;50.860;13.664;2022-09-09T06:54:24;96509.47;;;16.87;100.00
25130;BME280;13308;50.860;13.664;2022-09-09T06:56:50;96507.13;;;17.03;99.66
25130;BME280;13308;50.860;13.664;2022-09-09T06:59:21;96511.69;;;17.24;98.46
25130;BME280;13308;50.860;13.664;2022-09-09T07:01:46;96496.34;;;17.47;98.07
25130;BME280;13308;50.860;13.664;2022-09-09T07:04:13;96501.84;;;17.88;95.89
25130;BME280;13308;50.860;13.664;2022-09-09T07:06:43;96506.50;;;18.15;97.28
25130;BME280;13308;50.860;13.664;2022-09-09T07:09:13;96506.06;;;18.31;96.63
25130;BME280;13308;50.860;13.664;2022-09-09T07:11:47;96501.78;;;18.44;92.61
25130;BME280;13308;50.860;13.664;2022-09-09T07:14:14;96507.63;;;19.22;94.49
25130;BME280;13308;50.860;13.664;2022-09-09T07:16:41;96510.56;;;20.31;89.08
25130;BME280;13308;50.860;13.664;2022-09-09T07:19:08;96524.22;;;20.43;86.48
25130;BME280;13308;50.860;13.664;2022-09-09T07:21:33;96519.53;;;20.55;84.41
25130;BME280;13308;50.860;13.664;2022-09-09T07:23:59;96515.03;;;20.83;80.37
25130;BME280;13308;50.860;13.664;2022-09-09T07:26:28;96523.63;;;20.79;81.23
25130;BME280;13308;50.860;13.664;2022-09-09T07:28:54;96519.94;;;20.88;79.89
25130;BME280;13308;50.860;13.664;2022-09-09T07:31:25;96511.81;;;20.90;80.63
25130;BME280;13308;50.860;13.664;2022-09-09T07:33:52;96520.16;;;21.35;77.63
25130;BME280;13308;50.860;13.664;2022-09-09T07:36:29;96521.88;;;21.02;79.74
25130;BME280;13308;50.860;13.664;2022-09-09T07:38:59;96521.94;;;21.07;76.80
25130;BME280;13308;50.860;13.664;2022-09-09T07:41:27;96516.06;;;21.62;78.04
25130;BME280;13308;50.860;13.664;2022-09-09T07:43:54;96521.03;;;22.09;74.57
25130;BME280;13308;50.860;13.664;2022-09-09T07:46:21;96522.41;;;21.57;77.99
25130;BME280;13308;50.860;13.664;2022-09-09T07:48:49;96534.34;;;21.52;76.03
25130;BME280;13308;50.860;13.664;2022-09-09T07:51:21;96529.06;;;21.08;76.85
25130;BME280;13308;50.860;13.664;2022-09-09T07:53:55;96541.94;;;20.75;74.54
25130;BME280;13308;50.860;13.664;2022-09-09T07:56:21;96535.91;;;20.22;78.87
25130;BME280;13308;50.860;13.664;2022-09-09T07:58:51;96538.06;;;19.98;80.65
25130;BME280;13308;50.860;13.664;2022-09-09T08:01:23;96536.00;;;19.78;82.66
25130;BME280;13308;50.860;13.664;2022-09-09T08:04:08;96535.44;;;19.74;81.31
25130;BME280;13308;50.860;13.664;2022-09-09T08:06:38;96534.88;;;19.41;83.39
25130;BME280;13308;50.860;13.664;2022-09-09T08:09:05;96543.78;;;19.40;84.50
25130;BME280;13308;50.860;13.664;2022-09-09T08:11:32;96547.41;;;19.17;83.48
25130;BME280;13308;50.860;13.664;2022-09-09T08:13:59;96535.81;;;18.95;85.87
25130;BME280;13308;50.860;13.664;2022-09-09T08:16:28;96532.34;;;19.00;86.94
25130;BME280;13308;50.860;13.664;2022-09-09T08:18:55;96526.97;;;18.97;86.57
25130;BME280;13308;50.860;13.664;2022-09-09T08:21:31;96532.34;;;19.00;86.42
25130;BME280;13308;50.860;13.664;2022-09-09T08:24:00;96538.69;;;19.00;87.34
25130;BME280;13308;50.860;13.664;2022-09-09T08:26:28;96536.03;;;19.06;85.56
25130;BME280;13308;50.860;13.664;2022-09-09T08:28:56;96546.81;;;19.13;86.13
25130;BME280;13308;50.860;13.664;2022-09-09T08:31:28;96552.75;;;19.44;88.13
25130;BME280;13308;50.860;13.664;2022-09-09T08:33:55;96554.06;;;19.63;86.32
25130;BME280;13308;50.860;13.664;2022-09-09T08:36:23;96554.66;;;20.16;81.46
25130;BME280;13308;50.860;13.664;2022-09-09T08:38:50;96554.97;;;20.38;80.50
25130;BME280;13308;50.860;13.664;2022-09-09T08:41:40;96550.81;;;20.13;82.82
25130;BME280;13308;50.860;13.664;2022-09-09T08:44:14;96549.09;;;19.87;86.07
25130;BME280;13308;50.860;13.664;2022-09-09T08:50:16;96561.78;;;19.68;84.24
25130;BME280;13308;50.860;13.664;2022-09-09T08:53:10;96563.72;;;19.62;85.18
25130;BME280;13308;50.860;13.664;2022-09-09T08:55:45;96574.63;;;19.60;86.33
25130;BME280;13308;50.860;13.664;2022-09-09T09:12:06;96578.22;;;18.93;93.13
25130;BME280;13308;50.860;13.664;2022-09-09T09:14:37;96577.75;;;18.57;93.97
25130;BME280;13308;50.860;13.664;2022-09-09T09:17:11;96576.28;;;18.15;100.00
25130;BME280;13308;50.860;13.664;2022-09-09T09:19:40;96563.69;;;17.87;100.00
25130;BME280;13308;50.860;13.664;2022-09-09T09:22:44;96557.97;;;17.49;100.00
25130;BME280;13308;50.860;13.664;2022-09-09T09:25:16;96549.06;;;17.09;100.00
25130;BME280;13308;50.860;13.664;2022-09-09T09:30:25;96543.78;;;17.11;100.00
25130;BME280;13308;50.860;13.664;2022-09-09T09:33:15;96542.75;;;17.59;100.00
25130;BME280;13308;50.860;13.664;2022-09-09T09:35:43;96542.16;;;17.87;100.00
25130;BME280;13308;50.860;13.664;2022-09-09T09:38:21;96538.69;;;18.48;100.00
25130;BME280;13308;50.860;13.664;2022-09-09T09:40:56;96541.63;;;19.06;100.00
25130;BME280;13308;50.860;13.664;2022-09-09T09:43:31;96551.56;;;19.65;100.00
25130;BME280;13308;50.860;13.664;2022-09-09T09:45:59;96551.47;;;20.43;100.00
25130;BME280;13308;50.860;13.664;2022-09-09T09:48:27;96551.91;;;20.56;97.61
25130;BME280;13308;50.860;13.664;2022-09-09T09:51:06;96557.91;;;21.09;96.33
25130;BME280;13308;50.860;13.664;2022-09-09T09:53:43;96553.28;;;21.31;93.90
25130;BME280;13308;50.860;13.664;2022-09-09T09:56:14;96558.59;;;21.80;91.47
25130;BME280;13308;50.860;13.664;2022-09-09T10:01:30;96555.03;;;21.80;87.96
25130;BME280;13308;50.860;13.664;2022-09-09T10:04:14;96552.09;;;21.94;86.26
25130;BME280;13308;50.860;13.664;2022-09-09T10:06:41;96553.75;;;22.54;83.50
25130;BME280;13308;50.860;13.664;2022-09-09T10:09:27;96551.16;;;23.09;81.82
25130;BME280;13308;50.860;13.664;2022-09-09T10:12:19;96551.50;;;23.38;82.75
25130;BME280;13308;50.860;13.664;2022-09-09T10:18:13;96556.84;;;23.31;73.13
25130;BME280;13308;50.860;13.664;2022-09-09T10:20:57;96553.09;;;24.00;73.58
25130;BME280;13308;50.860;13.664;2022-09-09T10:26:37;96551.03;;;23.84;68.46
25130;BME280;13308;50.860;13.664;2022-09-09T10:29:13;96540.75;;;23.53;69.48
25130;BME280;13308;50.860;13.664;2022-09-09T10:31:52;96542.03;;;23.47;68.10
25130;BME280;13308;50.860;13.664;2022-09-09T10:37:01;96527.00;;;21.60;76.25
25130;BME280;13308;50.860;13.664;2022-09-09T10:39:38;96527.19;;;21.51;76.73
25130;BME280;13308;50.860;13.664;2022-09-09T10:42:16;96529.41;;;21.41;76.39
25130;BME280;13308;50.860;13.664;2022-09-09T10:55:43;96515.22;;;19.36;100.00
25130;BME280;13308;50.860;13.664;2022-09-09T10:58:13;96517.91;;;19.45;100.00
25130;BME280;13308;50.860;13.664;2022-09-09T11:00:44;96515.22;;;19.36;100.00
25130;BME280;13308;50.860;13.664;2022-09-09T11:03:19;96516.88;;;19.28;100.00
25130;BME280;13308;50.860;13.664;2022-09-09T11:06:02;96513.06;;;19.16;100.00
25130;BME280;13308;50.860;13.664;2022-09-09T11:08:30;96509.44;;;19.25;100.00
25130;BME280;13308;50.860;13.664;2022-09-09T11:13:39;96516.38;;;19.44;100.00
25130;BME280;13308;50.860;13.664;2022-09-09T11:16:34;96521.78;;;19.96;97.54
25130;BME280;13308;50.860;13.664;2022-09-09T11:19:27;96516.72;;;20.35;98.02
25130;BME280;13308;50.860;13.664;2022-09-09T11:21:55;96518.69;;;20.29;98.64
25130;BME280;13308;50.860;13.664;2022-09-09T11:24:36;96513.28;;;20.25;94.06
25130;BME280;13308;50.860;13.664;2022-09-09T11:38:47;96503.75;;;19.83;98.44
25130;BME280;13308;50.860;13.664;2022-09-09T11:41:17;96510.16;;;20.38;99.14
25130;BME280;13308;50.860;13.664;2022-09-09T11:43:46;96510.44;;;21.05;95.10
25130;BME280;13308;50.860;13.664;2022-09-09T11:46:14;96511.88;;;21.52;92.26
25130;BME280;13308;50.860;13.664;2022-09-09T11:48:57;96508.19;;;21.09;91.90
25130;BME280;13308;50.860;13.664;2022-09-09T11:51:28;96502.13;;;20.91;95.01
25130;BME280;13308;50.860;13.664;2022-09-09T11:56:34;96510.00;;;20.67;94.75
25130;BME280;13308;50.860;13.664;2022-09-09T11:59:26;96505.78;;;20.77;93.11
25130;BME280;13308;50.860;13.664;2022-09-09T12:02:14;96507.59;;;20.80;92.28
25130;BME280;13308;50.860;13.664;2022-09-09T12:04:49;96503.13;;;20.68;94.15
25130;BME280;13308;50.860;13.664;2022-09-09T12:07:50;96494.28;;;20.75;95.69
25130;BME280;13308;50.860;13.664;2022-09-09T12:10:30;96494.72;;;20.68;93.48
25130;BME280;13308;50.860;13.664;2022-09-09T12:13:20;96488.63;;;20.69;95.20
25130;BME280;13308;50.860;13.664;2022-09-09T12:15:50;96489.31;;;20.64;96.43
25130;BME280;13308;50.860;13.664;2022-09-09T12:18:34;96483.72;;;20.64;97.63
25130;BME280;13308;50.860;13.664;2022-09-09T12:21:07;96487.06;;;20.88;96.36
25130;BME280;13308;50.860;13.664;2022-09-09T12:23:50;96485.91;;;20.55;97.63
25130;BME280;13308;50.860;13.664;2022-09-09T12:26:47;96490.47;;;20.52;98.36
25130;BME280;13308;50.860;13.664;2022-09-09T12:31:54;96477.13;;;21.13;98.40
25130;BME280;13308;50.860;13.664;2022-09-09T12:37:16;96476.88;;;22.68;89.07
25130;BME280;13308;50.860;13.664;2022-09-09T12:39:52;96484.84;;;22.97;87.47
25130;BME280;13308;50.860;13.664;2022-09-09T12:42:20;96482.63;;;23.17;77.68
25130;BME280;13308;50.860;13.664;2022-09-09T12:44:57;96480.84;;;23.69;75.13
25130;BME280;13308;50.860;13.664;2022-09-09T12:47:40;96477.97;;;24.92;76.43
25130;BME280;13308;50.860;13.664;2022-09-09T12:50:25;96481.53;;;26.27;63.61
25130;BME280;13308;50.860;13.664;2022-09-09T12:52:53;96481.09;;;26.42;60.06
25130;BME280;13308;50.860;13.664;2022-09-09T12:55:21;96478.19;;;25.40;63.05
25130;BME280;13308;50.860;13.664;2022-09-09T12:57:50;96482.97;;;24.70;59.70
25130;BME280;13308;50.860;13.664;2022-09-09T13:00:18;96479.94;;;25.49;63.40
25130;BME280;13308;50.860;13.664;2022-09-09T13:02:48;96471.03;;;25.34;57.39
25130;BME280;13308;50.860;13.664;2022-09-09T13:05:22;96472.38;;;25.22;55.38
25130;BME280;13308;50.860;13.664;2022-09-09T13:07:48;96461.66;;;24.69;56.01
25130;BME280;13308;50.860;13.664;2022-09-09T13:10:18;96468.50;;;25.30;55.09
25130;BME280;13308;50.860;13.664;2022-09-09T13:12:46;96462.81;;;24.38;57.38
25130;BME280;13308;50.860;13.664;2022-09-09T13:15:19;96467.00;;;23.82;58.42
25130;BME280;13308;50.860;13.664;2022-09-09T13:17:50;96462.59;;;24.20;57.68
25130;BME280;13308;50.860;13.664;2022-09-09T13:20:18;96455.78;;;23.49;59.13
25130;BME280;13308;50.860;13.664;2022-09-09T13:22:44;96452.41;;;23.73;59.59
25130;BME280;13308;50.860;13.664;2022-09-09T13:27:38;96446.56;;;23.32;63.12
25130;BME280;13308;50.860;13.664;2022-09-09T13:30:21;96450.41;;;23.46;58.71
25130;BME280;13308;50.860;13.664;2022-09-09T13:32:59;96456.25;;;23.92;60.21
25130;BME280;13308;50.860;13.664;2022-09-09T13:35:26;96454.97;;;23.98;58.62
25130;BME280;13308;50.860;13.664;2022-09-09T13:37:51;96450.53;;;25.33;59.04
25130;BME280;13308;50.860;13.664;2022-09-09T13:40:19;96459.75;;;26.65;55.64
25130;BME280;13308;50.860;13.664;2022-09-09T13:42:46;96468.50;;;26.67;50.82
25130;BME280;13308;50.860;13.664;2022-09-09T13:45:17;96455.63;;;27.21;49.71
25130;BME280;13308;50.860;13.664;2022-09-09T13:47:45;96467.75;;;27.22;51.96
25130;BME280;13308;50.860;13.664;2022-09-09T13:50:27;96463.38;;;25.93;50.26
25130;BME280;13308;50.860;13.664;2022-09-09T13:52:56;96460.66;;;24.66;54.19
25130;BME280;13308;50.860;13.664;2022-09-09T13:55:26;96462.16;;;23.72;55.20
25130;BME280;13308;50.860;13.664;2022-09-09T13:57:53;96458.31;;;23.80;57.19
25130;BME280;13308;50.860;13.664;2022-09-09T14:00:19;96449.38;;;23.71;61.32
25130;BME280;13308;50.860;13.664;2022-09-09T14:02:45;96440.41;;;23.17;67.42
25130;BME280;13308;50.860;13.664;2022-09-09T14:05:11;96445.47;;;22.91;62.69
25130;BME280;13308;50.860;13.664;2022-09-09T14:07:37;96437.19;;;22.55;68.32
25130;BME280;13308;50.860;13.664;2022-09-09T14:10:04;96440.63;;;22.22;72.83
25130;BME280;13308;50.860;13.664;2022-09-09T14:12:30;96443.41;;;22.17;73.12
25130;BME280;13308;50.860;13.664;2022-09-09T14:14:55;96433.19;;;22.14;73.77
25130;BME280;13308;50.860;13.664;2022-09-09T14:17:20;96428.03;;;22.07;77.74
25130;BME280;13308;50.860;13.664;2022-09-09T14:19:47;96424.66;;;21.97;80.47
25130;BME280;13308;50.860;13.664;2022-09-09T14:22:12;96426.13;;;21.82;78.10
25130;BME280;13308;50.860;13.664;2022-09-09T14:24:37;96426.75;;;21.66;78.28
25130;BME280;13308;50.860;13.664;2022-09-09T14:27:03;96426.84;;;21.77;78.46
25130;BME280;13308;50.860;13.664;2022-09-09T14:29:28;96420.25;;;21.80;79.35
25130;BME280;13308;50.860;13.664;2022-09-09T14:31:53;96428.28;;;22.03;79.03
25130;BME280;13308;50.860;13.664;2022-09-09T14:34:19;96424.00;;;22.19;78.40
25130;BME280;13308;50.860;13.664;2022-09-09T14:36:44;96428.19;;;22.40;76.96
25130;BME280;13308;50.860;13.664;2022-09-09T14:39:10;96426.66;;;22.39;79.11
25130;BME280;13308;50.860;13.664;2022-09-09T14:41:35;96431.59;;;22.66;78.93
25130;BME280;13308;50.860;13.664;2022-09-09T14:44:01;96427.22;;;22.54;82.14
25130;BME280;13308;50.860;13.664;2022-09-09T14:46:26;96430.81;;;22.60;81.05
25130;BME280;13308;50.860;13.664;2022-09-09T14:48:52;96422.69;;;22.84;79.37
25130;BME280;13308;50.860;13.664;2022-09-09T14:51:20;96424.94;;;22.58;81.62
25130;BME280;13308;50.860;13.664;2022-09-09T14:53:47;96423.53;;;22.26;83.01
25130;BME280;13308;50.860;13.664;2022-09-09T14:56:16;96437.41;;;21.87;79.61
25130;BME280;13308;50.860;13.664;2022-09-09T14:58:42;96426.41;;;21.84;80.22
25130;BME280;13308;50.860;13.664;2022-09-09T15:01:10;96440.84;;;22.08;79.16
25130;BME280;13308;50.860;13.664;2022-09-09T15:03:36;96443.94;;;21.73;83.94
25130;BME280;13308;50.860;13.664;2022-09-09T15:06:21;96440.34;;;21.42;86.19
25130;BME280;13308;50.860;13.664;2022-09-09T15:08:47;96433.03;;;20.68;78.30
25130;BME280;13308;50.860;13.664;2022-09-09T15:11:13;96432.31;;;20.93;76.94
25130;BME280;13308;50.860;13.664;2022-09-09T15:13:41;96429.88;;;21.06;76.23
25130;BME280;13308;50.860;13.664;2022-09-09T15:16:10;96425.31;;;20.83;77.15
25130;BME280;13308;50.860;13.664;2022-09-09T15:18:36;96421.38;;;20.75;77.54
25130;BME280;13308;50.860;13.664;2022-09-09T15:21:04;96434.31;;;20.67;76.39
25130;BME280;13308;50.860;13.664;2022-09-09T15:23:33;96430.88;;;20.12;81.74
25130;BME280;13308;50.860;13.664;2022-09-09T15:25:58;96436.09;;;20.04;82.39
25130;BME280;13308;50.860;13.664;2022-09-09T15:28:24;96438.81;;;19.79;84.84
25130;BME280;13308;50.860;13.664;2022-09-09T15:30:49;96446.09;;;19.71;84.81
25130;BME280;13308;50.860;13.664;2022-09-09T15:33:15;96438.00;;;19.58;85.26
25130;BME280;13308;50.860;13.664;2022-09-09T15:35:41;96431.19;;;19.45;85.52
25130;BME280;13308;50.860;13.664;2022-09-09T15:38:06;96427.47;;;19.68;85.80
25130;BME280;13308;50.860;13.664;2022-09-09T15:40:31;96424.13;;;19.64;85.38
25130;BME280;13308;50.860;13.664;2022-09-09T15:42:59;96429.53;;;19.53;86.42
25130;BME280;13308;50.860;13.664;2022-09-09T15:45:25;96422.06;;;19.30;88.18
25130;BME280;13308;50.860;13.664;2022-09-09T15:47:52;96422.97;;;19.56;88.17
25130;BME280;13308;50.860;13.664;2022-09-09T15:50:18;96416.41;;;19.59;87.78
25130;BME280;13308;50.860;13.664;2022-09-09T15:52:43;96416.19;;;19.28;90.69
25130;BME280;13308;50.860;13.664;2022-09-09T15:55:09;96420.53;;;19.14;91.76
25130;BME280;13308;50.860;13.664;2022-09-09T15:57:34;96416.47;;;19.01;93.31
25130;BME280;13308;50.860;13.664;2022-09-09T16:00:03;96417.63;;;18.80;95.79
25130;BME280;13308;50.860;13.664;2022-09-09T16:02:30;96415.34;;;18.93;95.40
25130;BME280;13308;50.860;13.664;2022-09-09T16:04:55;96425.06;;;18.83;96.91
25130;BME280;13308;50.860;13.664;2022-09-09T16:07:22;96421.50;;;18.83;97.50
25130;BME280;13308;50.860;13.664;2022-09-09T16:09:48;96424.59;;;18.70;99.90
25130;BME280;13308;50.860;13.664;2022-09-09T16:12:15;96424.38;;;18.59;100.00
25130;BME280;13308;50.860;13.664;2022-09-09T16:14:41;96421.50;;;18.68;100.00
25130;BME280;13308;50.860;13.664;2022-09-09T16:17:06;96417.81;;;18.62;100.00
25130;BME280;13308;50.860;13.664;2022-09-09T16:19:32;96424.00;;;18.52;100.00
25130;BME280;13308;50.860;13.664;2022-09-09T16:21:59;96417.63;;;18.37;100.00
25130;BME280;13308;50.860;13.664;2022-09-09T16:24:25;96409.91;;;18.32;100.00
25130;BME280;13308;50.860;13.664;2022-09-09T16:26:52;96406.66;;;18.33;100.00
25130;BME280;13308;50.860;13.664;2022-09-09T16:29:20;96410.34;;;18.30;100.00
25130;BME280;13308;50.860;13.664;2022-09-09T16:31:46;96410.72;;;18.23;100.00
25130;BME280;13308;50.860;13.664;2022-09-09T16:34:12;96411.25;;;18.36;100.00
25130;BME280;13308;50.860;13.664;2022-09-09T16:36:38;96407.81;;;18.41;100.00
25130;BME280;13308;50.860;13.664;2022-09-09T16:39:07;96421.25;;;18.28;100.00
25130;BME280;13308;50.860;13.664;2022-09-09T16:41:34;96412.78;;;18.37;100.00
25130;BME280;13308;50.860;13.664;2022-09-09T16:44:02;96413.94;;;18.31;100.00
25130;BME280;13308;50.860;13.664;2022-09-09T16:46:29;96420.19;;;18.02;100.00
25130;BME280;13308;50.860;13.664;2022-09-09T16:48:56;96421.56;;;18.07;100.00
25130;BME280;13308;50.860;13.664;2022-09-09T16:51:34;96428.88;;;18.04;100.00
25130;BME280;13308;50.860;13.664;2022-09-09T16:54:02;96426.09;;;18.04;100.00
25130;BME280;13308;50.860;13.664;2022-09-09T16:56:30;96433.56;;;17.98;100.00
25130;BME280;13308;50.860;13.664;2022-09-09T16:58:57;96427.91;;;18.07;100.00
25130;BME280;13308;50.860;13.664;2022-09-09T17:01:27;96425.81;;;18.17;100.00
25130;BME280;13308;50.860;13.664;2022-09-09T17:03:57;96442.31;;;18.29;100.00
25130;BME280;13308;50.860;13.664;2022-09-09T17:06:23;96442.97;;;18.24;100.00
25130;BME280;13308;50.860;13.664;2022-09-09T17:08:54;96448.56;;;18.24;100.00
25130;BME280;13308;50.860;13.664;2022-09-09T17:11:19;96442.38;;;18.20;100.00
25130;BME280;13308;50.860;13.664;2022-09-09T17:13:46;96447.78;;;18.24;100.00
25130;BME280;13308;50.860;13.664;2022-09-09T17:16:13;96457.03;;;18.15;99.29
25130;BME280;13308;50.860;13.664;2022-09-09T17:18:39;96443.91;;;18.07;99.81
25130;BME280;13308;50.860;13.664;2022-09-09T17:21:13;96450.19;;;18.16;97.19
25130;BME280;13308;50.860;13.664;2022-09-09T17:23:40;96448.69;;;18.06;94.88
25130;BME280;13308;50.860;13.664;2022-09-09T17:26:09;96455.59;;;17.96;92.70
25130;BME280;13308;50.860;13.664;2022-09-09T17:28:35;96460.00;;;17.88;91.54
25130;BME280;13308;50.860;13.664;2022-09-09T17:31:02;96457.84;;;17.83;92.01
25130;BME280;13308;50.860;13.664;2022-09-09T17:33:29;96468.00;;;17.72;91.59
25130;BME280;13308;50.860;13.664;2022-09-09T17:35:59;96460.34;;;17.81;89.21
